Grant Co International Airport
KMWH : now visible

Airfield :











YOU CAN JOIN US ON...

 
LOGIN :

Register | Disclaimer

   EN    FR    IT 

 









Legend :    VFR   Marginal VFR   IFR   Intensive IFR   Very Intensive IFR
Visi :
Ceiling :
>= 8 km
>= 3000ft
5 to 8 km
1000 to 3000 ft
1500m to 5 km
500 to 1000 ft
800 to 1500m
200 to 500 ft
< 800m
< 200 ft
Symbols :   Thunderstorms  Fog  Heavy snow  Heavy precipitations  Wind > 20 kt






- Airport Elevation : 1189 ft


KMWH - Grant Co International

CURRENT METAR :
  • 251552Z 19008KT 10SM BKN110 05/M03 A3002 RMK AO2 SLP175 T00501033

EXPIRED METARs :
  • 251452Z 18008KT 10SM OVC110 04/M02 A3003 RMK AO2 SLP178 T00391022 56046
  • 251352Z 17011KT 10SM BKN065 OVC095 03/M04 A3006 RMK AO2 PRESFR SLP188 T00281044
  • 251252Z AUTO 16013KT 10SM BKN050 OVC070 03/M04 A3011 RMK AO2 SLP203 T00281044

TAF KMWH
Valid from the 25 at 12:00 until the 26 at 12:00 UTC


251136Z 2512/2612 17008KT P6SM BKN100
FM251230 15010KT 6SM -SN OVC060 WS020/22030KT
FM251400 15009KT P6SM OVC080 WS020/22035KT
FM251700 22010G17KT P6SM SCT060 OVC070
FM251900 24018G26KT P6SM VCSH SCT060 SCT200
FM260200 23013G19KT P6SM SCT100
FM260800 20012KT P6SM SCT080
KZSE FIR / North America



MET'MAP, your aeronautical weather chart ! - Copyright ORBIFLY December 2007 - Disclaimer

ORBIFLY MET'MAP TEAM :

Programming & Development : Alexandra Zaïnal
Concept & original design : Baudouin d'Aumeries
Assistance for programming : Marc-Olivier Méhu
Technical & hardware support : Manuel Goepfert

Contact : metmap@orbifly.com




SOURCES & CREDITS :

   NOAA       Earth
Advisory